Aviation Digital Data Service (ADDS)

Output produced by TAFs form (1848 UTC 20 April 2014)
found at http://www.aviationweather.gov/adds/tafs/
 
KMDT 201740Z 2018/2118 15004KT P6SM SCT250 
     FM210600 13002KT P6SM SKC